createdAt,value
2022-09-12T00:01:29.388Z,75.79
2022-09-12T00:04:02.191Z,75.70
2022-09-12T00:06:34.642Z,75.91
2022-09-12T00:09:11.064Z,75.94
2022-09-12T00:11:41.977Z,75.94
2022-09-12T00:14:24.786Z,76.07
2022-09-12T00:17:07.149Z,76.40
2022-09-12T00:19:36.125Z,76.14
2022-09-12T00:22:05.624Z,76.34
2022-09-12T00:24:34.983Z,76.58
2022-09-12T00:27:04.650Z,76.47
2022-09-12T00:29:47.266Z,76.29
2022-09-12T00:32:17.985Z,76.59
2022-09-12T00:35:00.521Z,76.57
2022-09-12T00:37:30.206Z,76.38
2022-09-12T00:39:59.798Z,76.23
2022-09-12T00:42:28.788Z,76.16
2022-09-12T00:45:27.780Z,76.40
2022-09-12T00:48:03.070Z,76.31
2022-09-12T00:50:33.651Z,76.60
2022-09-12T00:53:17.641Z,76.63
2022-09-12T00:55:50.629Z,76.83
2022-09-12T00:58:42.222Z,76.77
2022-09-12T01:01:11.643Z,76.84
2022-09-12T01:03:40.807Z,76.97
2022-09-12T01:06:24.097Z,77.24
2022-09-12T01:09:07.898Z,77.06
2022-09-12T01:11:39.372Z,77.08
2022-09-12T01:14:09.450Z,77.54
2022-09-12T01:16:38.935Z,77.56
2022-09-12T01:19:46.662Z,77.68
2022-09-12T01:22:41.785Z,77.61
2022-09-12T01:25:38.139Z,77.62
2022-09-12T01:28:35.847Z,77.79
2022-09-12T01:31:10.865Z,77.72
2022-09-12T01:33:58.890Z,77.98
2022-09-12T01:36:46.704Z,77.99
2022-09-12T01:39:23.662Z,78.02
2022-09-12T01:41:56.550Z,78.26
2022-09-12T01:45:11.740Z,78.31
2022-09-12T01:47:47.034Z,78.18
2022-09-12T01:50:29.703Z,78.15
2022-09-12T01:53:05.467Z,78.28
2022-09-12T01:55:43.346Z,78.61
2022-09-12T01:58:21.670Z,78.63
2022-09-12T02:01:33.723Z,78.52
2022-09-12T02:04:54.136Z,78.62
2022-09-12T02:07:50.305Z,78.58
2022-09-12T02:10:30.363Z,78.66
2022-09-12T02:13:01.775Z,78.62
2022-09-12T02:15:59.106Z,78.75
2022-09-12T02:18:30.312Z,78.65
2022-09-12T02:21:01.352Z,78.61
2022-09-12T02:23:49.375Z,78.61
2022-09-12T02:26:28.100Z,78.53
2022-09-12T02:28:58.010Z,78.66
2022-09-12T02:31:54.087Z,78.66
2022-09-12T02:35:16.214Z,78.64
2022-09-12T02:38:09.825Z,78.84
2022-09-12T02:40:39.446Z,78.91
2022-09-12T02:43:08.582Z,78.85
2022-09-12T02:45:38.314Z,79.40
2022-09-12T02:48:31.624Z,79.01
2022-09-12T02:51:14.945Z,79.10
2022-09-12T02:53:44.379Z,79.12
2022-09-12T02:56:20.335Z,79.16
2022-09-12T02:58:50.200Z,79.12
2022-09-12T03:01:51.925Z,79.40
2022-09-12T03:04:40.462Z,79.37
2022-09-12T03:07:34.224Z,79.36
2022-09-12T03:10:25.248Z,79.48
2022-09-12T03:13:19.054Z,79.67
2022-09-12T03:16:12.745Z,79.55
2022-09-12T03:19:14.103Z,79.64
2022-09-12T03:21:56.651Z,79.58
2022-09-12T03:24:58.090Z,79.73
2022-09-12T03:27:36.844Z,79.56
2022-09-12T03:30:19.808Z,79.99
2022-09-12T03:32:55.677Z,79.87
2022-09-12T03:35:39.045Z,80.21
2022-09-12T03:38:08.429Z,80.24
2022-09-12T03:40:54.681Z,80.36
2022-09-12T03:43:24.871Z,80.39
2022-09-12T03:45:54.707Z,80.51
2022-09-12T03:48:24.276Z,80.23
2022-09-12T03:51:09.706Z,80.33
2022-09-12T03:53:52.141Z,80.44
2022-09-12T03:56:21.497Z,80.18
2022-09-12T03:58:50.502Z,80.51
2022-09-12T04:01:33.984Z,80.31
2022-09-12T04:04:16.834Z,80.25
2022-09-12T04:06:46.055Z,80.67
2022-09-12T04:09:15.586Z,80.58
2022-09-12T04:11:45.218Z,80.82
2022-09-12T04:14:14.488Z,80.51
2022-09-12T04:16:43.963Z,80.42
2022-09-12T04:19:14.054Z,80.54
2022-09-12T04:21:43.878Z,80.64
2022-09-12T04:24:13.472Z,80.76
2022-09-12T04:26:42.654Z,80.90
2022-09-12T04:29:13.224Z,81.21
2022-09-12T04:31:42.873Z,80.88
2022-09-12T04:34:11.895Z,81.02
2022-09-12T04:36:40.877Z,80.88
2022-09-12T04:39:12.862Z,81.00
2022-09-12T04:41:42.675Z,81.13
2022-09-12T04:44:25.784Z,81.29
2022-09-12T04:47:08.366Z,81.07
2022-09-12T04:49:37.865Z,81.09
2022-09-12T04:52:08.307Z,81.27
2022-09-12T04:54:38.470Z,81.05
2022-09-12T04:57:07.532Z,81.08
2022-09-12T04:59:36.816Z,81.04
2022-09-12T05:02:06.161Z,81.18
2022-09-12T05:04:36.230Z,80.84
2022-09-12T05:07:06.607Z,81.26
2022-09-12T05:09:49.436Z,81.22
2022-09-12T05:12:19.183Z,81.20
2022-09-12T05:14:47.991Z,81.11
2022-09-12T05:17:17.452Z,81.19
2022-09-12T05:19:48.329Z,81.05
2022-09-12T05:22:31.168Z,81.21
2022-09-12T05:25:00.269Z,81.30
2022-09-12T05:27:28.964Z,81.22
2022-09-12T05:29:57.791Z,81.18
2022-09-12T05:32:26.676Z,81.31
2022-09-12T05:34:56.317Z,81.25
2022-09-12T05:37:25.441Z,81.30
2022-09-12T05:39:54.288Z,81.22
2022-09-12T05:42:37.567Z,81.60
2022-09-12T05:45:07.387Z,81.40
2022-09-12T05:47:36.361Z,81.52
2022-09-12T05:50:11.043Z,81.57
2022-09-12T05:52:55.103Z,81.43
2022-09-12T05:55:24.613Z,81.72
2022-09-12T05:57:54.760Z,81.61
2022-09-12T06:00:24.607Z,82.06
2022-09-12T06:02:53.985Z,81.86
2022-09-12T06:05:23.160Z,81.93
2022-09-12T06:07:52.707Z,82.16
2022-09-12T06:10:23.740Z,82.26
2022-09-12T06:12:52.727Z,82.43
2022-09-12T06:15:36.044Z,82.37
2022-09-12T06:18:05.483Z,82.55
2022-09-12T06:20:37.731Z,82.76
2022-09-12T06:23:09.388Z,82.32
2022-09-12T06:25:38.460Z,82.56
2022-09-12T06:28:08.740Z,82.41
2022-09-12T06:30:38.105Z,82.21
2022-09-12T06:33:21.348Z,82.16
2022-09-12T06:35:51.302Z,82.33
2022-09-12T06:38:26.774Z,82.20
2022-09-12T06:40:56.712Z,82.34
2022-09-12T06:43:41.084Z,82.26
2022-09-12T06:46:11.477Z,82.07
2022-09-12T06:48:56.214Z,81.90
2022-09-12T06:51:27.099Z,81.81
2022-09-12T06:53:57.980Z,81.55
2022-09-12T06:56:40.500Z,82.00
2022-09-12T06:59:23.583Z,81.73
2022-09-12T07:02:06.799Z,81.44
2022-09-12T07:04:37.752Z,81.53
2022-09-12T07:07:07.145Z,81.11
2022-09-12T07:09:50.156Z,81.09
2022-09-12T07:12:18.750Z,80.90
2022-09-12T07:14:48.569Z,80.47
2022-09-12T07:17:17.855Z,80.32
2022-09-12T07:19:46.729Z,80.64
2022-09-12T07:22:29.688Z,80.49
2022-09-12T07:24:59.388Z,80.06
2022-09-12T07:27:42.155Z,79.94
2022-09-12T07:30:11.707Z,80.04
2022-09-12T07:33:17.646Z,80.07
2022-09-12T07:36:05.499Z,79.83
2022-09-12T07:38:37.489Z,79.48
2022-09-12T07:41:25.653Z,79.02
2022-09-12T07:44:00.207Z,79.15
2022-09-12T07:46:32.184Z,79.03
2022-09-12T07:49:02.955Z,78.74
2022-09-12T07:51:46.028Z,78.62
2022-09-12T07:54:15.033Z,78.41
2022-09-12T07:56:43.900Z,78.53
2022-09-12T07:59:25.368Z,78.58
2022-09-12T08:02:04.493Z,78.13
2022-09-12T08:04:33.764Z,78.30
2022-09-12T08:07:03.254Z,77.31
2022-09-12T08:09:32.379Z,77.18
2022-09-12T08:12:01.684Z,77.49
2022-09-12T08:14:31.577Z,76.88
2022-09-12T08:17:00.571Z,76.91
2022-09-12T08:19:29.975Z,76.78
2022-09-12T08:22:06.112Z,76.09
2022-09-12T08:24:36.673Z,76.10
2022-09-12T08:27:19.158Z,75.73
2022-09-12T08:29:48.130Z,76.25
2022-09-12T08:32:17.089Z,76.57
2022-09-12T08:34:46.309Z,75.85
2022-09-12T08:37:16.023Z,76.52
2022-09-12T08:39:44.979Z,76.44
2022-09-12T08:42:43.134Z,75.71
2022-09-12T08:46:00.640Z,75.29
2022-09-12T08:49:19.432Z,73.66
2022-09-12T08:52:32.037Z,72.98
2022-09-12T08:55:23.652Z,73.32
2022-09-12T08:57:53.677Z,72.94
2022-09-12T09:00:23.346Z,73.26
2022-09-12T09:03:46.930Z,73.74
2022-09-12T09:07:01.955Z,73.73
2022-09-12T09:10:04.522Z,72.70
2022-09-12T09:12:55.723Z,72.84
2022-09-12T09:16:03.441Z,72.79
2022-09-12T09:18:37.879Z,72.27
2022-09-12T09:21:46.300Z,72.43
2022-09-12T09:24:21.154Z,71.73
2022-09-12T09:27:14.290Z,71.43
2022-09-12T09:30:29.455Z,71.41
2022-09-12T09:33:22.726Z,71.68
2022-09-12T09:36:45.475Z,71.12
2022-09-12T09:39:30.575Z,70.99
2022-09-12T09:42:20.783Z,69.60
2022-09-12T09:47:55.491Z,69.88
2022-09-12T09:50:25.027Z,70.20
2022-09-12T09:52:56.343Z,70.25
2022-09-12T09:55:31.335Z,68.92
2022-09-12T09:58:00.816Z,69.37
2022-09-12T10:00:36.197Z,69.71
2022-09-12T10:03:13.808Z,68.62
2022-09-12T10:05:50.028Z,68.68
2022-09-12T10:08:33.196Z,68.96
2022-09-12T10:11:20.889Z,68.16
2022-09-12T10:14:00.996Z,66.86
2022-09-12T10:16:35.891Z,67.07
2022-09-12T10:19:05.292Z,67.69
2022-09-12T10:22:01.476Z,67.89
2022-09-12T10:24:38.305Z,67.95
2022-09-12T10:27:24.876Z,67.33
2022-09-12T10:30:17.756Z,68.04
2022-09-12T10:32:52.671Z,67.58
2022-09-12T10:35:25.328Z,67.93
2022-09-12T10:38:02.497Z,67.02
2022-09-12T10:40:45.351Z,68.11
2022-09-12T10:43:31.652Z,67.98
2022-09-12T10:46:19.884Z,67.67
2022-09-12T10:49:12.872Z,68.19
2022-09-12T10:51:42.251Z,68.51
2022-09-12T10:54:15.934Z,68.73
2022-09-12T10:57:08.059Z,68.94
2022-09-12T11:00:28.077Z,69.00
2022-09-12T11:03:05.884Z,68.09
2022-09-12T11:05:42.513Z,67.88
2022-09-12T11:08:49.786Z,67.47
2022-09-12T11:11:19.177Z,67.48
2022-09-12T11:14:22.251Z,68.32
2022-09-12T11:17:29.328Z,66.08
2022-09-12T11:20:24.171Z,65.58
2022-09-12T11:23:12.031Z,66.41
2022-09-12T11:26:03.922Z,65.28
2022-09-12T11:28:52.033Z,65.11
2022-09-12T11:31:52.399Z,65.94
2022-09-12T11:35:08.849Z,65.98
2022-09-12T11:38:16.107Z,64.72
2022-09-12T11:41:11.540Z,65.13
2022-09-12T11:43:49.400Z,64.72
2022-09-12T11:46:32.331Z,63.12
2022-09-12T11:49:35.760Z,63.65
2022-09-12T11:52:18.319Z,64.62
2022-09-12T11:54:59.669Z,64.97
2022-09-12T11:57:40.151Z,64.60
2022-09-12T12:00:40.615Z,63.25
2022-09-12T12:03:31.660Z,61.81
2022-09-12T12:06:21.693Z,63.14
2022-09-12T12:08:52.485Z,63.66
2022-09-12T12:11:40.588Z,63.21
2022-09-12T12:14:25.984Z,62.85
2022-09-12T12:17:30.295Z,63.40
2022-09-12T12:20:07.670Z,63.63
2022-09-12T12:22:37.933Z,63.65
2022-09-12T12:25:13.038Z,64.15
2022-09-12T12:27:47.591Z,63.93
2022-09-12T12:30:38.652Z,63.92
2022-09-12T12:33:28.163Z,64.06
2022-09-12T12:36:05.351Z,64.46
2022-09-12T12:38:39.809Z,64.31
2022-09-12T12:41:23.498Z,64.59
2022-09-12T12:43:56.676Z,64.40
2022-09-12T12:46:30.501Z,63.76
2022-09-12T12:49:20.833Z,62.48
2022-09-12T12:51:55.638Z,62.40
2022-09-12T12:54:41.384Z,62.74
2022-09-12T12:57:31.595Z,62.41
2022-09-12T13:00:32.950Z,62.75
2022-09-12T13:03:04.707Z,62.69
2022-09-12T13:05:47.329Z,63.06
2022-09-12T13:08:23.979Z,62.97
2022-09-12T13:10:58.293Z,63.48
2022-09-12T13:13:46.018Z,63.11
2022-09-12T13:16:48.410Z,63.32
2022-09-12T13:19:33.470Z,63.07
2022-09-12T13:22:15.997Z,63.17
2022-09-12T13:24:52.405Z,63.57
2022-09-12T13:27:25.839Z,63.80
2022-09-12T13:30:15.504Z,63.72
2022-09-12T13:32:44.774Z,63.72
2022-09-12T13:35:34.976Z,63.82
2022-09-12T13:38:36.037Z,63.84
2022-09-12T13:41:42.542Z,63.97
2022-09-12T13:44:15.356Z,63.85
2022-09-12T13:46:44.547Z,64.14
2022-09-12T13:49:37.590Z,64.20
2022-09-12T13:52:23.670Z,63.83
2022-09-12T13:54:55.817Z,63.04
2022-09-12T13:57:37.971Z,63.08
2022-09-12T14:00:22.750Z,63.02
2022-09-12T14:06:13.040Z,63.13
2022-09-12T14:08:43.592Z,63.26
2022-09-12T14:11:17.955Z,63.48
2022-09-12T14:13:47.156Z,63.16
2022-09-12T14:16:17.528Z,63.56
2022-09-12T14:18:50.371Z,63.53
2022-09-12T14:21:34.591Z,63.41
2022-09-12T14:24:10.817Z,62.77
2022-09-12T14:26:44.884Z,62.85
2022-09-12T14:29:27.885Z,62.06
2022-09-12T14:32:05.441Z,62.27
2022-09-12T14:34:34.616Z,62.40
2022-09-12T14:37:07.352Z,62.21
2022-09-12T14:39:45.347Z,61.78
2022-09-12T14:42:22.447Z,61.89
2022-09-12T14:45:04.717Z,61.82
2022-09-12T14:47:51.510Z,61.43
2022-09-12T14:53:19.998Z,61.87
2022-09-12T14:56:06.582Z,61.59
2022-09-12T14:58:36.018Z,61.60
2022-09-12T15:01:08.490Z,61.93
2022-09-12T15:03:48.866Z,62.18
2022-09-12T15:06:33.416Z,62.28
2022-09-12T15:09:13.578Z,62.16
2022-09-12T15:11:42.340Z,62.19
2022-09-12T15:14:15.289Z,62.22
2022-09-12T15:16:44.555Z,61.52
2022-09-12T15:19:13.622Z,61.95
2022-09-12T15:21:42.999Z,61.85
2022-09-12T15:24:21.477Z,62.01
2022-09-12T15:27:11.733Z,61.42
2022-09-12T15:29:40.278Z,61.24
2022-09-12T15:32:15.458Z,61.13
2022-09-12T15:35:02.403Z,61.51
2022-09-12T15:37:37.474Z,61.99
2022-09-12T15:40:06.897Z,61.73
2022-09-12T15:42:35.702Z,61.76
2022-09-12T15:45:15.559Z,61.71
2022-09-12T15:47:45.204Z,61.83
2022-09-12T15:50:14.591Z,61.74
2022-09-12T15:52:43.941Z,61.58
2022-09-12T15:55:32.496Z,61.83
2022-09-12T15:58:06.280Z,61.96
2022-09-12T16:00:49.628Z,61.84
2022-09-12T16:03:33.050Z,61.72
2022-09-12T16:06:03.549Z,61.86
2022-09-12T16:08:33.441Z,62.11
2022-09-12T16:11:22.581Z,61.94
2022-09-12T16:13:55.541Z,61.93
2022-09-12T16:16:24.475Z,61.97
2022-09-12T16:18:53.419Z,61.90
2022-09-12T16:21:22.557Z,62.14
2022-09-12T16:23:51.716Z,62.21
2022-09-12T16:26:34.510Z,62.30
2022-09-12T16:29:03.559Z,62.34
2022-09-12T16:31:33.156Z,62.28
2022-09-12T16:34:02.093Z,62.48
2022-09-12T16:36:31.051Z,62.41
2022-09-12T16:39:00.410Z,62.40
2022-09-12T16:41:29.327Z,62.68
2022-09-12T16:43:58.522Z,62.47
2022-09-12T16:46:29.378Z,62.56
2022-09-12T16:49:12.668Z,62.44
2022-09-12T16:51:55.178Z,62.90
2022-09-12T16:54:42.178Z,62.84
2022-09-12T16:57:25.005Z,62.98
2022-09-12T17:00:08.522Z,63.13
2022-09-12T17:02:37.467Z,63.27
2022-09-12T17:05:07.649Z,63.23
2022-09-12T17:07:36.591Z,63.51
2022-09-12T17:10:05.693Z,63.37
2022-09-12T17:12:35.242Z,63.67
2022-09-12T17:15:04.541Z,63.77
2022-09-12T17:17:33.755Z,63.90
2022-09-12T17:20:02.808Z,63.99
2022-09-12T17:22:32.675Z,64.15
2022-09-12T17:25:06.689Z,64.06
2022-09-12T17:27:51.651Z,64.03
2022-09-12T17:30:23.424Z,64.34
2022-09-12T17:32:56.335Z,64.50
2022-09-12T17:35:27.230Z,64.34
2022-09-12T17:37:56.525Z,64.65
2022-09-12T17:40:42.473Z,64.67
2022-09-12T17:43:15.798Z,64.68
2022-09-12T17:45:45.526Z,65.01
2022-09-12T17:48:16.312Z,64.95
2022-09-12T17:51:08.024Z,65.13
2022-09-12T17:53:38.509Z,65.25
2022-09-12T17:56:08.992Z,65.39
2022-09-12T17:58:51.526Z,65.61
2022-09-12T18:01:38.945Z,65.65
2022-09-12T18:04:13.723Z,65.74
2022-09-12T18:06:51.227Z,65.78
2022-09-12T18:09:23.770Z,65.63
2022-09-12T18:11:53.907Z,65.89
2022-09-12T18:14:23.253Z,65.85
2022-09-12T18:16:52.429Z,65.86
2022-09-12T18:19:21.553Z,66.03
2022-09-12T18:21:50.252Z,66.24
2022-09-12T18:24:20.423Z,66.29
2022-09-12T18:26:49.061Z,66.38
2022-09-12T18:29:20.639Z,66.53
2022-09-12T18:31:50.896Z,66.38
2022-09-12T18:34:20.898Z,66.97
2022-09-12T18:37:05.977Z,66.96
2022-09-12T18:39:35.513Z,67.23
2022-09-12T18:42:18.424Z,67.37
2022-09-12T18:44:48.280Z,67.16
2022-09-12T18:47:17.401Z,67.36
2022-09-12T18:49:46.267Z,67.67
2022-09-12T18:52:18.865Z,67.88
2022-09-12T18:54:48.196Z,67.93
2022-09-12T18:57:17.107Z,67.87
2022-09-12T18:59:59.941Z,68.13
2022-09-12T19:02:29.468Z,68.55
2022-09-12T19:04:58.478Z,68.16
2022-09-12T19:07:41.555Z,68.61
2022-09-12T19:10:10.394Z,68.49
2022-09-12T19:12:38.999Z,68.78
2022-09-12T19:15:10.213Z,68.70
2022-09-12T19:17:39.396Z,68.60
2022-09-12T19:20:08.251Z,68.97
2022-09-12T19:22:37.310Z,68.47
2022-09-12T19:25:06.813Z,68.27
2022-09-12T19:27:35.895Z,68.58
2022-09-12T19:30:05.897Z,68.39
2022-09-12T19:32:48.249Z,68.43
2022-09-12T19:35:16.713Z,68.85
2022-09-12T19:37:45.711Z,68.93
2022-09-12T19:40:15.246Z,69.28
2022-09-12T19:42:45.256Z,69.24
2022-09-12T19:45:15.532Z,69.41
2022-09-12T19:47:45.300Z,69.17
2022-09-12T19:50:29.519Z,69.64
2022-09-12T19:52:59.473Z,69.93
2022-09-12T19:55:29.478Z,69.69
2022-09-12T19:58:14.295Z,69.65
2022-09-12T20:00:43.638Z,70.05
2022-09-12T20:03:12.776Z,70.25
2022-09-12T20:05:43.002Z,70.02
2022-09-12T20:08:14.025Z,69.97
2022-09-12T20:10:44.529Z,70.12
2022-09-12T20:13:16.544Z,70.08
2022-09-12T20:15:50.543Z,70.17
2022-09-12T20:18:22.837Z,70.15
2022-09-12T20:20:55.762Z,69.98
2022-09-12T20:23:41.579Z,70.03
2022-09-12T20:26:11.675Z,70.22
2022-09-12T20:28:48.401Z,70.38
2022-09-12T20:31:34.757Z,70.44
2022-09-12T20:34:05.683Z,70.33
2022-09-12T20:36:37.714Z,70.67
2022-09-12T20:39:06.827Z,70.35
2022-09-12T20:41:36.896Z,70.60
2022-09-12T20:44:06.512Z,70.29
2022-09-12T20:46:35.389Z,70.16
2022-09-12T20:49:04.866Z,70.26
2022-09-12T20:51:36.778Z,70.39
2022-09-12T20:54:07.483Z,70.71
2022-09-12T20:56:37.653Z,70.39
2022-09-12T20:59:22.279Z,70.18
2022-09-12T21:01:51.210Z,70.53
2022-09-12T21:04:20.272Z,70.98
2022-09-12T21:06:48.912Z,71.09
2022-09-12T21:09:25.919Z,71.44
2022-09-12T21:11:55.159Z,71.29
2022-09-12T21:14:23.672Z,71.36
2022-09-12T21:16:53.034Z,71.54
2022-09-12T21:19:35.314Z,71.32
2022-09-12T21:22:04.440Z,71.50
2022-09-12T21:24:47.140Z,71.57
2022-09-12T21:27:30.023Z,71.58
2022-09-12T21:30:00.169Z,71.60
2022-09-12T21:32:35.084Z,71.42
2022-09-12T21:35:38.549Z,71.54
2022-09-12T21:38:07.914Z,71.74
2022-09-12T21:40:37.485Z,71.73
2022-09-12T21:43:11.843Z,72.06
2022-09-12T21:45:42.367Z,72.14
2022-09-12T21:48:11.936Z,72.15
2022-09-12T21:50:55.102Z,72.22
2022-09-12T21:53:24.679Z,72.37
2022-09-12T21:55:54.336Z,72.60
2022-09-12T21:58:37.789Z,72.64
2022-09-12T22:01:11.225Z,72.74
2022-09-12T22:03:54.036Z,72.80
2022-09-12T22:06:23.360Z,72.64
2022-09-12T22:09:06.689Z,72.79
2022-09-12T22:11:49.391Z,72.79
2022-09-12T22:14:18.063Z,73.08
2022-09-12T22:16:47.337Z,72.96
2022-09-12T22:19:16.407Z,73.13
2022-09-12T22:22:04.407Z,73.19
2022-09-12T22:24:47.349Z,73.00
2022-09-12T22:27:29.795Z,73.08
2022-09-12T22:30:13.247Z,72.98
2022-09-12T22:32:42.814Z,73.06
2022-09-12T22:35:11.988Z,73.47
2022-09-12T22:37:41.800Z,73.48
2022-09-12T22:40:12.587Z,73.52
2022-09-12T22:42:41.664Z,73.39
2022-09-12T22:45:10.914Z,73.25
2022-09-12T22:47:53.889Z,73.17
2022-09-12T22:50:23.242Z,73.06
2022-09-12T22:53:06.162Z,73.51
2022-09-12T22:55:48.989Z,73.39
2022-09-12T22:58:17.934Z,72.97
2022-09-12T23:00:53.079Z,73.10
2022-09-12T23:03:22.469Z,73.13
2022-09-12T23:05:51.995Z,73.11
2022-09-12T23:08:21.549Z,72.99
2022-09-12T23:10:51.064Z,73.31
2022-09-12T23:13:19.990Z,73.30
2022-09-12T23:15:57.475Z,73.54
2022-09-12T23:18:27.859Z,73.57
2022-09-12T23:21:09.829Z,73.38
2022-09-12T23:23:40.112Z,73.30
2022-09-12T23:26:18.702Z,73.31
2022-09-12T23:28:51.172Z,73.61
2022-09-12T23:31:21.608Z,73.65
2022-09-12T23:34:06.816Z,73.81
2022-09-12T23:36:36.522Z,73.85
2022-09-12T23:39:19.078Z,73.68
2022-09-12T23:42:01.567Z,73.56
2022-09-12T23:44:44.511Z,73.37
2022-09-12T23:47:13.647Z,73.38
2022-09-12T23:49:56.634Z,73.51
2022-09-12T23:52:25.686Z,73.66
2022-09-12T23:55:08.900Z,73.88
2022-09-12T23:57:39.575Z,73.80
